Akvile — LYJM — position and weather

sailwx.info

Track history (hours):
 
Tides and Currents Weather Stations Pressure Air Temp Water Temp Dewpoint Dewpoint Depression Visibility Wind Speed Wind Dir Waves Ship Positions

Akvile

Last reported at 2015-Mar-01 03:33 UTC. Time now 2015-Mar-05 12:01 UTC.
Position N 43°21' E 009°42'.

Length 103 m; draft 6.9 m.

Type: Ship. MMSI: 277073000.

Date/timePositionNaut miles runAvg speedWind from/ knotsBaromVisibWave heightAir tempDewpointWater temp
2015-Mar-01 03:33N 43°21' E 009°42'1010.2
2015-Mar-01 02:33N 43°31' E 009°44'1111.1
2015-Mar-01 01:33N 43°42' E 009°47'1111.3
2015-Mar-01 00:33N 43°53' E 009°50'1111.0
2015-Feb-28 23:33N 44°04' E 009°51'3 2.5
2015-Feb-28 22:32N 44°07' E 009°50'0 0.0
2015-Feb-28 21:32N 44°07' E 009°50'0 0.0
2015-Feb-28 20:32N 44°07' E 009°50'0 0.0
2015-Feb-28 19:32N 44°07' E 009°50'0 0.0
2015-Feb-28 18:32N 44°07' E 009°50'0 0.0
2015-Feb-28 17:32N 44°07' E 009°50'0 0.0
2015-Feb-28 16:32N 44°07' E 009°50'0 0.0
2015-Feb-28 15:32N 44°07' E 009°50'0 0.0
2015-Feb-28 14:32N 44°07' E 009°50'0 0.0
2015-Feb-28 13:32N 44°07' E 009°50'0 0.0
2015-Feb-28 12:32N 44°07' E 009°50'0 0.0
2015-Feb-28 11:32N 44°07' E 009°50'0 0.0
2015-Feb-28 10:32N 44°07' E 009°50'0 0.0
2015-Feb-28 09:29N 44°07' E 009°50'0 0.0
2015-Feb-28 08:32N 44°07' E 009°50'0 0.0
2015-Feb-28 07:32N 44°07' E 009°50'0 0.0
2015-Feb-28 06:32N 44°07' E 009°50'0 0.0
2015-Feb-28 05:32N 44°07' E 009°50'1 0.8
2015-Feb-28 04:32N 44°06' E 009°51'0 0.0
2015-Feb-28 03:29N 44°06' E 009°51'0 0.0
2015-Feb-28 02:32N 44°06' E 009°51'0 0.0
2015-Feb-28 01:32N 44°06' E 009°51'0 0.0
2015-Feb-28 00:32N 44°06' E 009°51'0 0.0
2015-Feb-27 23:32N 44°06' E 009°51'0 0.0
2015-Feb-27 22:32N 44°06' E 009°51'0 0.0
2015-Feb-27 21:32N 44°06' E 009°51'0 0.0
2015-Feb-27 20:32N 44°06' E 009°51'0 0.0
2015-Feb-27 19:32N 44°06' E 009°51'0 0.0
2015-Feb-27 18:32N 44°06' E 009°51'0 0.0
2015-Feb-27 17:32N 44°06' E 009°51'0 0.0
2015-Feb-27 16:32N 44°06' E 009°51'0 0.0
2015-Feb-27 15:32N 44°06' E 009°51'0 0.0
2015-Feb-27 14:32N 44°06' E 009°51'5 5.5
2015-Feb-27 13:34N 44°01' E 009°54'1212.5
2015-Feb-27 12:34N 43°49' E 009°50'1312.8
2015-Feb-27 11:33N 43°37' E 009°47'1312.7
2015-Feb-27 10:34N 43°24' E 009°44'1313.0
2015-Feb-27 09:34N 43°11' E 009°40'  
Track history (hours):
 
Tides and Currents Weather Stations Pressure Air Temp Water Temp Dewpoint Dewpoint Depression Visibility Wind Speed Wind Dir Waves Ship Positions

Akvile

Last reported at 2015-Mar-01 03:33 UTC. Time now 2015-Mar-05 12:01 UTC.
Position N 43°21' E 009°42'.

Length 103 m; draft 6.9 m.

Type: Ship. MMSI: 277073000.

Date/timePositionNaut miles runAvg speedWind from/ knotsBaromVisibWave heightAir tempDewpointWater temp
2015-Mar-01 03:33N 43°21' E 009°42'1010.2
2015-Mar-01 02:33N 43°31' E 009°44'1111.1
2015-Mar-01 01:33N 43°42' E 009°47'1111.3
2015-Mar-01 00:33N 43°53' E 009°50'1111.0
2015-Feb-28 23:33N 44°04' E 009°51'3 2.5
2015-Feb-28 22:32N 44°07' E 009°50'0 0.0
2015-Feb-28 21:32N 44°07' E 009°50'0 0.0
2015-Feb-28 20:32N 44°07' E 009°50'0 0.0
2015-Feb-28 19:32N 44°07' E 009°50'0 0.0
2015-Feb-28 18:32N 44°07' E 009°50'0 0.0
2015-Feb-28 17:32N 44°07' E 009°50'0 0.0
2015-Feb-28 16:32N 44°07' E 009°50'0 0.0
2015-Feb-28 15:32N 44°07' E 009°50'0 0.0
2015-Feb-28 14:32N 44°07' E 009°50'0 0.0
2015-Feb-28 13:32N 44°07' E 009°50'0 0.0
2015-Feb-28 12:32N 44°07' E 009°50'0 0.0
2015-Feb-28 11:32N 44°07' E 009°50'0 0.0
2015-Feb-28 10:32N 44°07' E 009°50'0 0.0
2015-Feb-28 09:29N 44°07' E 009°50'0 0.0
2015-Feb-28 08:32N 44°07' E 009°50'0 0.0
2015-Feb-28 07:32N 44°07' E 009°50'0 0.0
2015-Feb-28 06:32N 44°07' E 009°50'0 0.0
2015-Feb-28 05:32N 44°07' E 009°50'1 0.8
2015-Feb-28 04:32N 44°06' E 009°51'0 0.0
2015-Feb-28 03:29N 44°06' E 009°51'0 0.0
2015-Feb-28 02:32N 44°06' E 009°51'0 0.0
2015-Feb-28 01:32N 44°06' E 009°51'0 0.0
2015-Feb-28 00:32N 44°06' E 009°51'0 0.0
2015-Feb-27 23:32N 44°06' E 009°51'0 0.0
2015-Feb-27 22:32N 44°06' E 009°51'0 0.0
2015-Feb-27 21:32N 44°06' E 009°51'0 0.0
2015-Feb-27 20:32N 44°06' E 009°51'0 0.0
2015-Feb-27 19:32N 44°06' E 009°51'0 0.0
2015-Feb-27 18:32N 44°06' E 009°51'0 0.0
2015-Feb-27 17:32N 44°06' E 009°51'0 0.0
2015-Feb-27 16:32N 44°06' E 009°51'0 0.0
2015-Feb-27 15:32N 44°06' E 009°51'0 0.0
2015-Feb-27 14:32N 44°06' E 009°51'5 5.5
2015-Feb-27 13:34N 44°01' E 009°54'1212.5
2015-Feb-27 12:34N 43°49' E 009°50'1312.8
2015-Feb-27 11:33N 43°37' E 009°47'1312.7
2015-Feb-27 10:34N 43°24' E 009°44'1313.0
2015-Feb-27 09:34N 43°11' E 009°40'  

Dump ship's entire track history